sensor_id;sensor_type;location;lat;lon;timestamp;P1;durP1;ratioP1;P2;durP2;ratioP2
23362;SDS011;11853;48.080;11.960;2023-06-19T00:01:54;9.25;;;8.35;;
23362;SDS011;11853;48.080;11.960;2023-06-19T00:04:20;9.02;;;8.23;;
23362;SDS011;11853;48.080;11.960;2023-06-19T00:06:46;9.70;;;8.80;;
23362;SDS011;11853;48.080;11.960;2023-06-19T00:09:11;9.13;;;8.23;;
23362;SDS011;11853;48.080;11.960;2023-06-19T00:11:38;9.70;;;8.65;;
23362;SDS011;11853;48.080;11.960;2023-06-19T00:14:03;9.43;;;8.52;;
23362;SDS011;11853;48.080;11.960;2023-06-19T00:16:30;9.02;;;8.23;;
23362;SDS011;11853;48.080;11.960;2023-06-19T00:18:56;9.50;;;8.60;;
23362;SDS011;11853;48.080;11.960;2023-06-19T00:21:22;8.35;;;7.55;;
23362;SDS011;11853;48.080;11.960;2023-06-19T00:23:52;8.57;;;7.78;;
23362;SDS011;11853;48.080;11.960;2023-06-19T00:26:18;9.20;;;8.40;;
23362;SDS011;11853;48.080;11.960;2023-06-19T00:28:53;9.98;;;8.98;;
23362;SDS011;11853;48.080;11.960;2023-06-19T00:31:18;9.35;;;8.52;;
23362;SDS011;11853;48.080;11.960;2023-06-19T00:33:44;8.93;;;8.02;;
23362;SDS011;11853;48.080;11.960;2023-06-19T00:36:14;8.57;;;7.78;;
23362;SDS011;11853;48.080;11.960;2023-06-19T00:38:41;8.43;;;7.65;;
23362;SDS011;11853;48.080;11.960;2023-06-19T00:41:07;8.77;;;7.95;;
23362;SDS011;11853;48.080;11.960;2023-06-19T00:43:33;9.73;;;8.82;;
23362;SDS011;11853;48.080;11.960;2023-06-19T00:46:00;9.25;;;8.35;;
23362;SDS011;11853;48.080;11.960;2023-06-19T00:48:27;8.55;;;7.75;;
23362;SDS011;11853;48.080;11.960;2023-06-19T00:50:55;8.07;;;7.38;;
23362;SDS011;11853;48.080;11.960;2023-06-19T00:53:22;9.60;;;8.15;;
23362;SDS011;11853;48.080;11.960;2023-06-19T00:55:48;8.57;;;7.78;;
23362;SDS011;11853;48.080;11.960;2023-06-19T00:58:17;10.27;;;8.57;;
23362;SDS011;11853;48.080;11.960;2023-06-19T01:00:43;8.55;;;7.75;;
23362;SDS011;11853;48.080;11.960;2023-06-19T01:03:09;9.10;;;8.20;;
23362;SDS011;11853;48.080;11.960;2023-06-19T01:05:34;8.85;;;8.05;;
23362;SDS011;11853;48.080;11.960;2023-06-19T01:10:40;9.73;;;8.82;;
23362;SDS011;11853;48.080;11.960;2023-06-19T01:13:15;9.43;;;8.55;;
23362;SDS011;11853;48.080;11.960;2023-06-19T01:15:52;9.30;;;8.40;;
23362;SDS011;11853;48.080;11.960;2023-06-19T01:18:19;9.55;;;8.65;;
23362;SDS011;11853;48.080;11.960;2023-06-19T01:20:47;9.70;;;8.80;;
23362;SDS011;11853;48.080;11.960;2023-06-19T01:23:14;9.38;;;8.57;;
23362;SDS011;11853;48.080;11.960;2023-06-19T01:25:40;9.40;;;8.57;;
23362;SDS011;11853;48.080;11.960;2023-06-19T01:28:06;9.63;;;8.73;;
23362;SDS011;11853;48.080;11.960;2023-06-19T01:30:34;9.63;;;8.73;;
23362;SDS011;11853;48.080;11.960;2023-06-19T01:35:35;9.95;;;9.02;;
23362;SDS011;11853;48.080;11.960;2023-06-19T01:38:02;10.80;;;9.13;;
23362;SDS011;11853;48.080;11.960;2023-06-19T01:40:28;9.98;;;9.00;;
23362;SDS011;11853;48.080;11.960;2023-06-19T01:42:57;9.77;;;8.77;;
23362;SDS011;11853;48.080;11.960;2023-06-19T01:45:26;9.75;;;8.85;;
23362;SDS011;11853;48.080;11.960;2023-06-19T01:47:54;9.98;;;8.98;;
23362;SDS011;11853;48.080;11.960;2023-06-19T01:50:23;8.85;;;7.97;;
23362;SDS011;11853;48.080;11.960;2023-06-19T01:52:50;10.18;;;9.02;;
23362;SDS011;11853;48.080;11.960;2023-06-19T01:55:16;9.38;;;8.48;;
23362;SDS011;11853;48.080;11.960;2023-06-19T01:57:42;9.82;;;8.98;;
23362;SDS011;11853;48.080;11.960;2023-06-19T02:00:08;9.68;;;8.77;;
23362;SDS011;11853;48.080;11.960;2023-06-19T02:02:35;9.68;;;8.77;;
23362;SDS011;11853;48.080;11.960;2023-06-19T02:05:01;9.25;;;8.38;;
23362;SDS011;11853;48.080;11.960;2023-06-19T02:07:27;9.57;;;8.70;;
23362;SDS011;11853;48.080;11.960;2023-06-19T02:09:53;9.57;;;8.70;;
23362;SDS011;11853;48.080;11.960;2023-06-19T02:12:19;9.80;;;8.65;;
23362;SDS011;11853;48.080;11.960;2023-06-19T02:14:44;9.85;;;8.90;;
23362;SDS011;11853;48.080;11.960;2023-06-19T02:17:10;9.95;;;8.55;;
23362;SDS011;11853;48.080;11.960;2023-06-19T02:19:36;9.60;;;8.70;;
23362;SDS011;11853;48.080;11.960;2023-06-19T02:22:01;9.50;;;8.68;;
23362;SDS011;11853;48.080;11.960;2023-06-19T02:24:27;9.15;;;8.30;;
23362;SDS011;11853;48.080;11.960;2023-06-19T02:26:53;10.10;;;8.98;;
23362;SDS011;11853;48.080;11.960;2023-06-19T02:29:18;9.25;;;8.35;;
23362;SDS011;11853;48.080;11.960;2023-06-19T02:31:45;9.93;;;9.02;;
23362;SDS011;11853;48.080;11.960;2023-06-19T02:34:10;9.35;;;8.55;;
23362;SDS011;11853;48.080;11.960;2023-06-19T02:36:36;10.30;;;8.60;;
23362;SDS011;11853;48.080;11.960;2023-06-19T02:39:05;12.70;;;8.63;;
23362;SDS011;11853;48.080;11.960;2023-06-19T02:41:33;8.98;;;8.23;;
23362;SDS011;11853;48.080;11.960;2023-06-19T02:43:59;9.73;;;8.80;;
23362;SDS011;11853;48.080;11.960;2023-06-19T02:46:24;9.75;;;8.85;;
23362;SDS011;11853;48.080;11.960;2023-06-19T02:48:50;10.32;;;9.32;;
23362;SDS011;11853;48.080;11.960;2023-06-19T02:51:16;9.55;;;8.73;;
23362;SDS011;11853;48.080;11.960;2023-06-19T02:53:41;10.10;;;8.88;;
23362;SDS011;11853;48.080;11.960;2023-06-19T02:56:09;9.75;;;8.82;;
23362;SDS011;11853;48.080;11.960;2023-06-19T02:58:35;10.40;;;9.23;;
23362;SDS011;11853;48.080;11.960;2023-06-19T03:01:03;9.40;;;8.50;;
23362;SDS011;11853;48.080;11.960;2023-06-19T03:03:32;9.98;;;9.02;;
23362;SDS011;11853;48.080;11.960;2023-06-19T03:06:03;9.90;;;8.90;;
23362;SDS011;11853;48.080;11.960;2023-06-19T03:08:31;9.45;;;8.55;;
23362;SDS011;11853;48.080;11.960;2023-06-19T03:10:58;9.48;;;8.65;;
23362;SDS011;11853;48.080;11.960;2023-06-19T03:13:23;10.40;;;9.40;;
23362;SDS011;11853;48.080;11.960;2023-06-19T03:15:49;9.77;;;8.98;;
23362;SDS011;11853;48.080;11.960;2023-06-19T03:21:36;10.27;;;8.95;;
23362;SDS011;11853;48.080;11.960;2023-06-19T03:24:02;9.30;;;8.40;;
23362;SDS011;11853;48.080;11.960;2023-06-19T03:26:28;10.18;;;9.07;;
23362;SDS011;11853;48.080;11.960;2023-06-19T03:28:53;10.10;;;9.02;;
23362;SDS011;11853;48.080;11.960;2023-06-19T03:31:19;9.63;;;8.73;;
23362;SDS011;11853;48.080;11.960;2023-06-19T03:33:44;10.45;;;9.45;;
23362;SDS011;11853;48.080;11.960;2023-06-19T03:36:10;11.15;;;10.02;;
23362;SDS011;11853;48.080;11.960;2023-06-19T03:38:36;10.10;;;9.15;;
23362;SDS011;11853;48.080;11.960;2023-06-19T03:41:01;10.50;;;9.60;;
23362;SDS011;11853;48.080;11.960;2023-06-19T03:43:27;10.93;;;9.82;;
23362;SDS011;11853;48.080;11.960;2023-06-19T03:45:53;10.50;;;9.32;;
23362;SDS011;11853;48.080;11.960;2023-06-19T03:48:18;10.68;;;9.60;;
23362;SDS011;11853;48.080;11.960;2023-06-19T03:50:44;10.70;;;9.70;;
23362;SDS011;11853;48.080;11.960;2023-06-19T03:53:10;10.07;;;9.18;;
23362;SDS011;11853;48.080;11.960;2023-06-19T03:55:35;10.60;;;9.60;;
23362;SDS011;11853;48.080;11.960;2023-06-19T03:58:01;10.18;;;9.27;;
23362;SDS011;11853;48.080;11.960;2023-06-19T04:00:27;10.75;;;9.70;;
23362;SDS011;11853;48.080;11.960;2023-06-19T04:02:52;9.95;;;9.02;;
23362;SDS011;11853;48.080;11.960;2023-06-19T04:05:18;9.98;;;9.10;;
23362;SDS011;11853;48.080;11.960;2023-06-19T04:07:44;10.65;;;9.65;;
23362;SDS011;11853;48.080;11.960;2023-06-19T04:10:10;10.32;;;9.38;;
23362;SDS011;11853;48.080;11.960;2023-06-19T04:12:37;9.93;;;9.02;;
23362;SDS011;11853;48.080;11.960;2023-06-19T04:15:03;10.15;;;9.20;;
23362;SDS011;11853;48.080;11.960;2023-06-19T04:17:29;10.35;;;9.35;;
23362;SDS011;11853;48.080;11.960;2023-06-19T04:19:55;12.40;;;9.70;;
23362;SDS011;11853;48.080;11.960;2023-06-19T04:22:20;10.55;;;9.55;;
23362;SDS011;11853;48.080;11.960;2023-06-19T04:24:46;9.93;;;8.93;;
23362;SDS011;11853;48.080;11.960;2023-06-19T04:27:12;11.40;;;9.95;;
23362;SDS011;11853;48.080;11.960;2023-06-19T04:29:37;13.20;;;11.05;;
23362;SDS011;11853;48.080;11.960;2023-06-19T04:32:03;13.18;;;10.60;;
23362;SDS011;11853;48.080;11.960;2023-06-19T04:34:36;11.65;;;10.45;;
23362;SDS011;11853;48.080;11.960;2023-06-19T04:37:02;11.50;;;10.30;;
23362;SDS011;11853;48.080;11.960;2023-06-19T04:39:28;11.27;;;10.20;;
23362;SDS011;11853;48.080;11.960;2023-06-19T04:41:53;11.05;;;10.02;;
23362;SDS011;11853;48.080;11.960;2023-06-19T04:44:19;11.15;;;9.98;;
23362;SDS011;11853;48.080;11.960;2023-06-19T04:46:45;12.68;;;10.73;;
23362;SDS011;11853;48.080;11.960;2023-06-19T04:49:11;11.43;;;10.32;;
23362;SDS011;11853;48.080;11.960;2023-06-19T04:51:38;11.20;;;10.05;;
23362;SDS011;11853;48.080;11.960;2023-06-19T04:54:04;11.38;;;10.27;;
23362;SDS011;11853;48.080;11.960;2023-06-19T04:56:29;11.35;;;10.23;;
23362;SDS011;11853;48.080;11.960;2023-06-19T04:58:55;11.55;;;10.50;;
23362;SDS011;11853;48.080;11.960;2023-06-19T05:01:24;12.35;;;11.15;;
23362;SDS011;11853;48.080;11.960;2023-06-19T05:03:53;13.32;;;11.93;;
23362;SDS011;11853;48.080;11.960;2023-06-19T05:06:20;11.23;;;10.15;;
23362;SDS011;11853;48.080;11.960;2023-06-19T05:08:49;12.25;;;10.95;;
23362;SDS011;11853;48.080;11.960;2023-06-19T05:11:15;11.48;;;10.38;;
23362;SDS011;11853;48.080;11.960;2023-06-19T05:13:41;12.18;;;10.98;;
23362;SDS011;11853;48.080;11.960;2023-06-19T05:16:06;11.48;;;10.38;;
23362;SDS011;11853;48.080;11.960;2023-06-19T05:18:32;13.90;;;11.50;;
23362;SDS011;11853;48.080;11.960;2023-06-19T05:20:58;12.35;;;11.05;;
23362;SDS011;11853;48.080;11.960;2023-06-19T05:23:23;10.98;;;9.90;;
23362;SDS011;11853;48.080;11.960;2023-06-19T05:25:49;10.80;;;9.70;;
23362;SDS011;11853;48.080;11.960;2023-06-19T05:28:15;11.45;;;10.43;;
23362;SDS011;11853;48.080;11.960;2023-06-19T05:30:41;11.55;;;10.35;;
23362;SDS011;11853;48.080;11.960;2023-06-19T05:33:07;11.13;;;10.10;;
23362;SDS011;11853;48.080;11.960;2023-06-19T05:35:32;11.88;;;10.68;;
23362;SDS011;11853;48.080;11.960;2023-06-19T05:37:58;11.82;;;10.73;;
23362;SDS011;11853;48.080;11.960;2023-06-19T05:40:24;11.70;;;10.60;;
23362;SDS011;11853;48.080;11.960;2023-06-19T05:42:49;11.70;;;10.68;;
23362;SDS011;11853;48.080;11.960;2023-06-19T05:45:15;11.30;;;10.20;;
23362;SDS011;11853;48.080;11.960;2023-06-19T05:47:41;10.40;;;9.48;;
23362;SDS011;11853;48.080;11.960;2023-06-19T05:50:07;11.27;;;10.07;;
23362;SDS011;11853;48.080;11.960;2023-06-19T05:52:33;11.13;;;10.13;;
23362;SDS011;11853;48.080;11.960;2023-06-19T05:54:59;11.60;;;10.38;;
23362;SDS011;11853;48.080;11.960;2023-06-19T05:57:25;10.40;;;9.43;;
23362;SDS011;11853;48.080;11.960;2023-06-19T05:59:51;10.57;;;9.55;;
23362;SDS011;11853;48.080;11.960;2023-06-19T06:02:18;11.02;;;9.93;;
23362;SDS011;11853;48.080;11.960;2023-06-19T06:04:45;10.02;;;9.13;;
23362;SDS011;11853;48.080;11.960;2023-06-19T06:07:11;10.82;;;9.00;;
23362;SDS011;11853;48.080;11.960;2023-06-19T06:09:37;10.02;;;9.13;;
23362;SDS011;11853;48.080;11.960;2023-06-19T06:12:03;11.10;;;9.27;;
23362;SDS011;11853;48.080;11.960;2023-06-19T06:14:29;9.98;;;9.07;;
23362;SDS011;11853;48.080;11.960;2023-06-19T06:16:55;9.85;;;8.85;;
23362;SDS011;11853;48.080;11.960;2023-06-19T06:19:21;9.45;;;8.60;;
23362;SDS011;11853;48.080;11.960;2023-06-19T06:21:50;9.32;;;8.52;;
23362;SDS011;11853;48.080;11.960;2023-06-19T06:24:15;8.93;;;8.15;;
23362;SDS011;11853;48.080;11.960;2023-06-19T06:26:41;9.30;;;8.45;;
23362;SDS011;11853;48.080;11.960;2023-06-19T06:29:07;9.05;;;8.18;;
23362;SDS011;11853;48.080;11.960;2023-06-19T06:31:37;9.15;;;8.25;;
23362;SDS011;11853;48.080;11.960;2023-06-19T06:34:03;9.48;;;8.48;;
23362;SDS011;11853;48.080;11.960;2023-06-19T06:36:29;9.32;;;8.52;;
23362;SDS011;11853;48.080;11.960;2023-06-19T06:38:55;9.02;;;8.23;;
23362;SDS011;11853;48.080;11.960;2023-06-19T06:41:20;9.15;;;8.35;;
23362;SDS011;11853;48.080;11.960;2023-06-19T06:43:46;9.40;;;8.50;;
23362;SDS011;11853;48.080;11.960;2023-06-19T06:46:12;8.82;;;7.95;;
23362;SDS011;11853;48.080;11.960;2023-06-19T06:48:37;9.40;;;8.45;;
23362;SDS011;11853;48.080;11.960;2023-06-19T06:51:03;8.82;;;8.02;;
23362;SDS011;11853;48.080;11.960;2023-06-19T06:53:29;9.07;;;8.25;;
23362;SDS011;11853;48.080;11.960;2023-06-19T06:55:57;9.10;;;8.30;;
23362;SDS011;11853;48.080;11.960;2023-06-19T06:58:24;9.10;;;8.35;;
23362;SDS011;11853;48.080;11.960;2023-06-19T07:00:50;8.82;;;8.02;;
23362;SDS011;11853;48.080;11.960;2023-06-19T07:03:16;9.43;;;8.40;;
23362;SDS011;11853;48.080;11.960;2023-06-19T07:05:43;8.90;;;8.10;;
23362;SDS011;11853;48.080;11.960;2023-06-19T07:08:09;9.35;;;8.27;;
23362;SDS011;11853;48.080;11.960;2023-06-19T07:10:35;8.75;;;7.95;;
23362;SDS011;11853;48.080;11.960;2023-06-19T07:13:00;8.80;;;8.00;;
23362;SDS011;11853;48.080;11.960;2023-06-19T07:15:26;8.63;;;7.82;;
23362;SDS011;11853;48.080;11.960;2023-06-19T07:17:52;8.82;;;8.02;;
23362;SDS011;11853;48.080;11.960;2023-06-19T07:20:17;9.50;;;8.73;;
23362;SDS011;11853;48.080;11.960;2023-06-19T07:22:43;8.70;;;7.97;;
23362;SDS011;11853;48.080;11.960;2023-06-19T07:25:10;10.05;;;8.30;;
23362;SDS011;11853;48.080;11.960;2023-06-19T07:27:36;9.05;;;8.25;;
23362;SDS011;11853;48.080;11.960;2023-06-19T07:30:02;8.55;;;7.85;;
23362;SDS011;11853;48.080;11.960;2023-06-19T07:32:28;8.80;;;7.90;;
23362;SDS011;11853;48.080;11.960;2023-06-19T07:34:54;8.27;;;7.47;;
23362;SDS011;11853;48.080;11.960;2023-06-19T07:37:20;8.90;;;8.10;;
23362;SDS011;11853;48.080;11.960;2023-06-19T07:39:46;8.50;;;7.68;;
23362;SDS011;11853;48.080;11.960;2023-06-19T07:42:14;8.52;;;7.82;;
23362;SDS011;11853;48.080;11.960;2023-06-19T07:44:40;9.10;;;8.20;;
23362;SDS011;11853;48.080;11.960;2023-06-19T07:47:06;8.73;;;7.93;;
23362;SDS011;11853;48.080;11.960;2023-06-19T07:49:33;9.48;;;8.57;;
23362;SDS011;11853;48.080;11.960;2023-06-19T07:51:59;8.13;;;7.40;;
23362;SDS011;11853;48.080;11.960;2023-06-19T07:54:25;8.50;;;7.70;;
23362;SDS011;11853;48.080;11.960;2023-06-19T07:56:51;9.60;;;8.48;;
23362;SDS011;11853;48.080;11.960;2023-06-19T07:59:17;9.00;;;8.13;;
23362;SDS011;11853;48.080;11.960;2023-06-19T08:01:43;8.55;;;7.65;;
23362;SDS011;11853;48.080;11.960;2023-06-19T08:04:09;8.88;;;7.85;;
23362;SDS011;11853;48.080;11.960;2023-06-19T08:06:35;8.43;;;7.63;;
23362;SDS011;11853;48.080;11.960;2023-06-19T08:09:01;7.60;;;7.00;;
23362;SDS011;11853;48.080;11.960;2023-06-19T08:11:27;8.15;;;7.35;;
23362;SDS011;11853;48.080;11.960;2023-06-19T08:13:53;7.97;;;7.28;;
23362;SDS011;11853;48.080;11.960;2023-06-19T08:16:19;9.13;;;7.70;;
23362;SDS011;11853;48.080;11.960;2023-06-19T08:18:45;7.75;;;7.05;;
23362;SDS011;11853;48.080;11.960;2023-06-19T08:21:12;8.80;;;7.90;;
23362;SDS011;11853;48.080;11.960;2023-06-19T08:23:38;8.63;;;7.82;;
23362;SDS011;11853;48.080;11.960;2023-06-19T08:26:05;9.30;;;8.30;;
23362;SDS011;11853;48.080;11.960;2023-06-19T08:28:33;9.10;;;8.23;;
23362;SDS011;11853;48.080;11.960;2023-06-19T08:30:59;10.02;;;8.35;;
23362;SDS011;11853;48.080;11.960;2023-06-19T08:33:25;8.70;;;7.63;;
23362;SDS011;11853;48.080;11.960;2023-06-19T08:35:50;8.40;;;7.70;;
23362;SDS011;11853;48.080;11.960;2023-06-19T08:38:16;8.77;;;7.90;;
23362;SDS011;11853;48.080;11.960;2023-06-19T08:40:43;8.07;;;7.28;;
23362;SDS011;11853;48.080;11.960;2023-06-19T08:43:10;9.38;;;8.48;;
23362;SDS011;11853;48.080;11.960;2023-06-19T08:45:36;8.52;;;7.15;;
23362;SDS011;11853;48.080;11.960;2023-06-19T08:48:03;10.23;;;8.50;;
23362;SDS011;11853;48.080;11.960;2023-06-19T08:50:32;8.82;;;8.02;;
23362;SDS011;11853;48.080;11.960;2023-06-19T08:52:58;8.23;;;7.53;;
23362;SDS011;11853;48.080;11.960;2023-06-19T08:55:24;8.43;;;7.47;;
23362;SDS011;11853;48.080;11.960;2023-06-19T08:57:50;8.52;;;7.50;;
23362;SDS011;11853;48.080;11.960;2023-06-19T09:00:24;7.03;;;5.80;;
23362;SDS011;11853;48.080;11.960;2023-06-19T09:03:01;5.65;;;5.15;;
23362;SDS011;11853;48.080;11.960;2023-06-19T09:05:28;5.32;;;4.78;;
23362;SDS011;11853;48.080;11.960;2023-06-19T09:07:55;5.78;;;5.38;;
23362;SDS011;11853;48.080;11.960;2023-06-19T09:10:22;5.47;;;5.00;;
23362;SDS011;11853;48.080;11.960;2023-06-19T09:12:59;5.60;;;5.10;;
23362;SDS011;11853;48.080;11.960;2023-06-19T09:15:27;5.65;;;5.15;;
23362;SDS011;11853;48.080;11.960;2023-06-19T09:18:10;5.85;;;5.30;;
23362;SDS011;11853;48.080;11.960;2023-06-19T09:20:38;5.57;;;5.03;;
23362;SDS011;11853;48.080;11.960;2023-06-19T09:25:45;7.20;;;4.55;;
23362;SDS011;11853;48.080;11.960;2023-06-19T09:28:22;5.72;;;4.65;;
23362;SDS011;11853;48.080;11.960;2023-06-19T09:30:52;4.83;;;4.40;;
23362;SDS011;11853;48.080;11.960;2023-06-19T09:33:18;5.43;;;4.90;;
23362;SDS011;11853;48.080;11.960;2023-06-19T09:35:44;5.78;;;4.90;;
23362;SDS011;11853;48.080;11.960;2023-06-19T09:38:09;5.40;;;4.90;;
23362;SDS011;11853;48.080;11.960;2023-06-19T09:40:36;5.22;;;4.82;;
23362;SDS011;11853;48.080;11.960;2023-06-19T09:43:02;5.40;;;4.90;;
23362;SDS011;11853;48.080;11.960;2023-06-19T09:45:32;5.38;;;4.88;;
23362;SDS011;11853;48.080;11.960;2023-06-19T09:48:08;6.00;;;5.35;;
23362;SDS011;11853;48.080;11.960;2023-06-19T09:50:45;4.93;;;4.53;;
23362;SDS011;11853;48.080;11.960;2023-06-19T09:53:32;6.30;;;5.70;;
23362;SDS011;11853;48.080;11.960;2023-06-19T09:55:59;6.05;;;5.43;;
23362;SDS011;11853;48.080;11.960;2023-06-19T09:58:30;5.95;;;5.45;;
23362;SDS011;11853;48.080;11.960;2023-06-19T10:01:07;5.55;;;5.00;;
23362;SDS011;11853;48.080;11.960;2023-06-19T10:03:33;6.03;;;5.50;;
23362;SDS011;11853;48.080;11.960;2023-06-19T10:06:03;6.40;;;5.80;;
23362;SDS011;11853;48.080;11.960;2023-06-19T10:08:40;6.30;;;5.80;;
23362;SDS011;11853;48.080;11.960;2023-06-19T10:11:06;6.57;;;5.95;;
23362;SDS011;11853;48.080;11.960;2023-06-19T10:13:36;6.40;;;5.25;;
23362;SDS011;11853;48.080;11.960;2023-06-19T10:16:22;6.38;;;5.75;;
23362;SDS011;11853;48.080;11.960;2023-06-19T10:21:20;6.60;;;6.00;;
23362;SDS011;11853;48.080;11.960;2023-06-19T10:23:54;6.22;;;5.70;;
23362;SDS011;11853;48.080;11.960;2023-06-19T10:26:28;7.45;;;5.47;;
23362;SDS011;11853;48.080;11.960;2023-06-19T10:29:00;6.40;;;5.80;;
23362;SDS011;11853;48.080;11.960;2023-06-19T10:31:27;6.40;;;5.90;;
23362;SDS011;11853;48.080;11.960;2023-06-19T10:33:55;6.25;;;5.65;;
23362;SDS011;11853;48.080;11.960;2023-06-19T10:36:21;6.30;;;5.72;;
23362;SDS011;11853;48.080;11.960;2023-06-19T10:38:48;6.18;;;5.68;;
23362;SDS011;11853;48.080;11.960;2023-06-19T10:41:18;6.40;;;5.85;;
23362;SDS011;11853;48.080;11.960;2023-06-19T10:44:04;6.45;;;5.85;;
23362;SDS011;11853;48.080;11.960;2023-06-19T10:46:34;7.80;;;5.00;;
23362;SDS011;11853;48.080;11.960;2023-06-19T10:49:01;6.07;;;5.13;;
23362;SDS011;11853;48.080;11.960;2023-06-19T10:51:35;6.05;;;5.25;;
23362;SDS011;11853;48.080;11.960;2023-06-19T10:54:02;6.45;;;5.70;;
23362;SDS011;11853;48.080;11.960;2023-06-19T10:56:28;6.45;;;5.95;;
23362;SDS011;11853;48.080;11.960;2023-06-19T10:59:01;5.70;;;5.30;;
23362;SDS011;11853;48.080;11.960;2023-06-19T11:01:34;5.30;;;4.90;;
23362;SDS011;11853;48.080;11.960;2023-06-19T11:04:05;5.30;;;4.90;;
23362;SDS011;11853;48.080;11.960;2023-06-19T11:06:32;5.35;;;4.88;;
23362;SDS011;11853;48.080;11.960;2023-06-19T11:08:58;5.25;;;4.85;;
23362;SDS011;11853;48.080;11.960;2023-06-19T11:11:35;5.20;;;4.80;;
23362;SDS011;11853;48.080;11.960;2023-06-19T11:14:07;5.30;;;4.80;;
23362;SDS011;11853;48.080;11.960;2023-06-19T11:16:34;5.07;;;4.60;;
23362;SDS011;11853;48.080;11.960;2023-06-19T11:19:02;5.22;;;4.82;;
23362;SDS011;11853;48.080;11.960;2023-06-19T11:21:32;4.65;;;4.25;;
23362;SDS011;11853;48.080;11.960;2023-06-19T11:24:10;4.50;;;4.20;;
23362;SDS011;11853;48.080;11.960;2023-06-19T11:26:46;4.97;;;4.47;;
23362;SDS011;11853;48.080;11.960;2023-06-19T11:29:23;4.50;;;4.13;;
23362;SDS011;11853;48.080;11.960;2023-06-19T11:35:04;4.70;;;4.30;;
23362;SDS011;11853;48.080;11.960;2023-06-19T11:37:39;4.15;;;3.85;;
23362;SDS011;11853;48.080;11.960;2023-06-19T11:43:30;4.72;;;4.32;;
23362;SDS011;11853;48.080;11.960;2023-06-19T11:46:09;3.97;;;3.75;;
23362;SDS011;11853;48.080;11.960;2023-06-19T11:48:44;4.20;;;3.90;;
23362;SDS011;11853;48.080;11.960;2023-06-19T11:51:10;4.53;;;4.13;;
23362;SDS011;11853;48.080;11.960;2023-06-19T11:53:35;4.20;;;3.90;;
23362;SDS011;11853;48.080;11.960;2023-06-19T11:56:01;4.90;;;4.53;;
23362;SDS011;11853;48.080;11.960;2023-06-19T11:58:27;5.40;;;4.35;;
23362;SDS011;11853;48.080;11.960;2023-06-19T12:00:52;5.00;;;4.70;;
23362;SDS011;11853;48.080;11.960;2023-06-19T12:03:18;5.25;;;4.78;;
23362;SDS011;11853;48.080;11.960;2023-06-19T12:05:44;5.03;;;4.63;;
23362;SDS011;11853;48.080;11.960;2023-06-19T12:08:10;6.25;;;4.40;;
23362;SDS011;11853;48.080;11.960;2023-06-19T12:10:35;5.40;;;4.90;;
23362;SDS011;11853;48.080;11.960;2023-06-19T12:13:01;4.80;;;4.43;;
23362;SDS011;11853;48.080;11.960;2023-06-19T12:15:27;4.68;;;4.30;;
23362;SDS011;11853;48.080;11.960;2023-06-19T12:17:53;4.72;;;4.32;;
23362;SDS011;11853;48.080;11.960;2023-06-19T12:20:19;4.90;;;4.50;;
23362;SDS011;11853;48.080;11.960;2023-06-19T12:22:45;5.07;;;4.68;;
23362;SDS011;11853;48.080;11.960;2023-06-19T12:25:10;5.75;;;4.80;;
23362;SDS011;11853;48.080;11.960;2023-06-19T12:27:39;5.25;;;4.85;;
23362;SDS011;11853;48.080;11.960;2023-06-19T12:30:05;5.00;;;4.60;;
23362;SDS011;11853;48.080;11.960;2023-06-19T12:32:33;4.93;;;4.50;;
23362;SDS011;11853;48.080;11.960;2023-06-19T12:34:59;5.30;;;4.90;;
23362;SDS011;11853;48.080;11.960;2023-06-19T12:37:25;5.53;;;5.05;;
23362;SDS011;11853;48.080;11.960;2023-06-19T12:39:50;6.30;;;4.90;;
23362;SDS011;11853;48.080;11.960;2023-06-19T12:42:16;5.90;;;5.40;;
23362;SDS011;11853;48.080;11.960;2023-06-19T12:44:42;5.38;;;4.97;;
23362;SDS011;11853;48.080;11.960;2023-06-19T12:47:11;5.53;;;5.13;;
23362;SDS011;11853;48.080;11.960;2023-06-19T12:49:38;5.70;;;5.10;;
23362;SDS011;11853;48.080;11.960;2023-06-19T12:52:09;5.57;;;5.18;;
23362;SDS011;11853;48.080;11.960;2023-06-19T12:54:37;5.82;;;5.30;;
23362;SDS011;11853;48.080;11.960;2023-06-19T12:57:05;5.53;;;5.03;;
23362;SDS011;11853;48.080;11.960;2023-06-19T12:59:33;5.65;;;5.15;;
23362;SDS011;11853;48.080;11.960;2023-06-19T13:01:59;5.82;;;5.32;;
23362;SDS011;11853;48.080;11.960;2023-06-19T13:04:25;5.57;;;5.05;;
23362;SDS011;11853;48.080;11.960;2023-06-19T13:06:50;5.53;;;5.13;;
23362;SDS011;11853;48.080;11.960;2023-06-19T13:09:16;5.72;;;5.22;;
23362;SDS011;11853;48.080;11.960;2023-06-19T13:11:42;5.88;;;5.30;;
23362;SDS011;11853;48.080;11.960;2023-06-19T13:14:07;5.57;;;5.03;;
23362;SDS011;11853;48.080;11.960;2023-06-19T13:16:33;6.18;;;5.68;;
23362;SDS011;11853;48.080;11.960;2023-06-19T13:18:59;6.68;;;5.95;;
23362;SDS011;11853;48.080;11.960;2023-06-19T13:21:24;5.70;;;5.30;;
23362;SDS011;11853;48.080;11.960;2023-06-19T13:23:50;5.63;;;5.20;;
23362;SDS011;11853;48.080;11.960;2023-06-19T13:26:15;6.68;;;5.35;;
23362;SDS011;11853;48.080;11.960;2023-06-19T13:28:41;5.90;;;5.03;;
23362;SDS011;11853;48.080;11.960;2023-06-19T13:31:07;6.50;;;5.97;;
23362;SDS011;11853;48.080;11.960;2023-06-19T13:33:32;6.60;;;5.15;;
23362;SDS011;11853;48.080;11.960;2023-06-19T13:35:58;6.40;;;5.80;;
23362;SDS011;11853;48.080;11.960;2023-06-19T13:45:06;6.25;;;5.70;;
23362;SDS011;11853;48.080;11.960;2023-06-19T13:47:52;6.10;;;5.60;;
23362;SDS011;11853;48.080;11.960;2023-06-19T13:50:44;5.30;;;4.90;;
23362;SDS011;11853;48.080;11.960;2023-06-19T13:56:12;5.88;;;5.30;;
23362;SDS011;11853;48.080;11.960;2023-06-19T14:05:18;6.90;;;6.30;;
23362;SDS011;11853;48.080;11.960;2023-06-19T14:07:52;7.15;;;6.55;;
23362;SDS011;11853;48.080;11.960;2023-06-19T14:10:19;7.20;;;6.50;;
23362;SDS011;11853;48.080;11.960;2023-06-19T14:12:45;7.30;;;6.47;;
23362;SDS011;11853;48.080;11.960;2023-06-19T14:15:10;6.70;;;6.10;;
23362;SDS011;11853;48.080;11.960;2023-06-19T14:17:36;6.90;;;6.25;;
23362;SDS011;11853;48.080;11.960;2023-06-19T14:20:02;7.38;;;6.30;;
23362;SDS011;11853;48.080;11.960;2023-06-19T14:22:29;7.18;;;6.45;;
23362;SDS011;11853;48.080;11.960;2023-06-19T14:24:55;6.88;;;6.30;;
23362;SDS011;11853;48.080;11.960;2023-06-19T14:27:24;6.85;;;6.25;;
23362;SDS011;11853;48.080;11.960;2023-06-19T14:29:50;6.30;;;5.80;;
23362;SDS011;11853;48.080;11.960;2023-06-19T14:32:18;7.05;;;6.35;;
23362;SDS011;11853;48.080;11.960;2023-06-19T14:34:44;7.25;;;6.57;;
23362;SDS011;11853;48.080;11.960;2023-06-19T14:37:09;7.60;;;7.00;;
23362;SDS011;11853;48.080;11.960;2023-06-19T14:39:35;7.85;;;7.15;;
23362;SDS011;11853;48.080;11.960;2023-06-19T14:42:01;6.80;;;6.30;;
23362;SDS011;11853;48.080;11.960;2023-06-19T14:44:26;7.22;;;6.63;;
23362;SDS011;11853;48.080;11.960;2023-06-19T14:46:52;7.43;;;6.93;;
23362;SDS011;11853;48.080;11.960;2023-06-19T14:49:18;6.97;;;6.38;;
23362;SDS011;11853;48.080;11.960;2023-06-19T14:51:44;6.78;;;6.20;;
23362;SDS011;11853;48.080;11.960;2023-06-19T14:54:09;7.07;;;6.57;;
23362;SDS011;11853;48.080;11.960;2023-06-19T14:56:35;7.47;;;6.78;;
23362;SDS011;11853;48.080;11.960;2023-06-19T14:59:04;6.97;;;6.47;;
23362;SDS011;11853;48.080;11.960;2023-06-19T15:01:29;7.28;;;6.55;;
23362;SDS011;11853;48.080;11.960;2023-06-19T15:03:55;7.78;;;7.03;;
23362;SDS011;11853;48.080;11.960;2023-06-19T15:06:20;7.32;;;6.72;;
23362;SDS011;11853;48.080;11.960;2023-06-19T15:08:46;7.30;;;6.70;;